地図

経路データ

SID SEASON NUMBER BASIN SUBBASIN NAME ISO_TIME NATURE LAT LON WMO_WIND WMO_PRES WMO_AGENCY TRACK_TYPE DIST2LAND LANDFALL IFLAG USA_AGENCY USA_ATCF_ID USA_LAT USA_LON USA_RECORD USA_STATUS USA_WIND USA_PRES USA_SSHS USA_R34_NE USA_R34_SE USA_R34_SW USA_R34_NW USA_R50_NE USA_R50_SE USA_R50_SW USA_R50_NW USA_R64_NE USA_R64_SE USA_R64_SW USA_R64_NW USA_POCI USA_ROCI USA_RMW USA_EYE TOKYO_LAT TOKYO_LON TOKYO_GRADE TOKYO_WIND TOKYO_PRES TOKYO_R50_DIR TOKYO_R50_LONG TOKYO_R50_SHORT TOKYO_R30_DIR TOKYO_R30_LONG TOKYO_R30_SHORT TOKYO_LAND CMA_LAT CMA_LON CMA_CAT CMA_WIND CMA_PRES HKO_LAT HKO_LON HKO_CAT HKO_WIND HKO_PRES NEWDELHI_LAT NEWDELHI_LON NEWDELHI_GRADE NEWDELHI_WIND NEWDELHI_PRES NEWDELHI_CI NEWDELHI_DP NEWDELHI_POCI REUNION_LAT REUNION_LON REUNION_TYPE REUNION_WIND REUNION_PRES REUNION_TNUM REUNION_CI REUNION_RMW REUNION_R34_NE REUNION_R34_SE REUNION_R34_SW REUNION_R34_NW REUNION_R50_NE REUNION_R50_SE REUNION_R50_SW REUNION_R50_NW REUNION_R64_NE REUNION_R64_SE REUNION_R64_SW REUNION_R64_NW BOM_LAT BOM_LON BOM_TYPE BOM_WIND BOM_PRES BOM_TNUM BOM_CI BOM_RMW BOM_R34_NE BOM_R34_SE BOM_R34_SW BOM_R34_NW BOM_R50_NE BOM_R50_SE BOM_R50_SW BOM_R50_NW BOM_R64_NE BOM_R64_SE BOM_R64_SW BOM_R64_NW BOM_ROCI BOM_POCI BOM_EYE BOM_POS_METHOD BOM_PRES_METHOD NADI_LAT NADI_LON NADI_CAT NADI_WIND NADI_PRES WELLINGTON_LAT WELLINGTON_LON WELLINGTON_WIND WELLINGTON_PRES DS824_LAT DS824_LON DS824_STAGE DS824_WIND DS824_PRES TD9636_LAT TD9636_LON TD9636_STAGE TD9636_WIND TD9636_PRES TD9635_LAT TD9635_LON TD9635_WIND TD9635_PRES TD9635_ROCI NEUMANN_LAT NEUMANN_LON NEUMANN_CLASS NEUMANN_WIND NEUMANN_PRES MLC_LAT MLC_LON MLC_CLASS MLC_WIND MLC_PRES USA_GUST BOM_GUST BOM_GUST_PER REUNION_GUST REUNION_GUST_PER USA_SEAHGT USA_SEARAD_NE USA_SEARAD_SE USA_SEARAD_SW USA_SEARAD_NW STORM_SPEED STORM_DIR
1986259N13256 1986 95 EP MM MADELINE 1986-09-15 18:00:00 TS 12.7000 -103.900 25 hurdat_epa main 596 596 O_________O___ hurdat_epa EP131986 12.7000 -103.900 TD 25 -1 12.7000 -103.900 1 25 15 262
1986259N13256 1986 95 EP MM MADELINE 1986-09-15 21:00:00 TS 12.5919 -104.658 main 645 645 P_________P___ EP131986 12.5904 -104.658 TD 27 -1 12.5963 -104.660 1 27 15 262
1986259N13256 1986 95 EP MM MADELINE 1986-09-16 00:00:00 TS 12.5000 -105.400 30 hurdat_epa main 680 680 O_________O___ hurdat_epa EP131986 12.5000 -105.400 TD 30 -1 12.5000 -105.400 1 30 14 264
1986259N13256 1986 95 EP MM MADELINE 1986-09-16 03:00:00 TS 12.4366 -106.112 main 716 716 P_________P___ EP131986 12.4423 -106.115 TD 30 -1 12.4196 -106.104 1 30 14 265
1986259N13256 1986 95 EP MM MADELINE 1986-09-16 06:00:00 TS 12.3896 -106.795 30 hurdat_epa main 749 749 O_________P___ hurdat_epa EP131986 12.4000 -106.800 TD 30 -1 12.3583 -106.781 1 30 13 266
1986259N13256 1986 95 EP MM MADELINE 1986-09-16 09:00:00 TS 12.3361 -107.442 main 791 791 P_________P___ EP131986 12.3422 -107.443 TD 30 -1 12.3178 -107.442 1 30 13 266
1986259N13256 1986 95 EP MM MADELINE 1986-09-16 12:00:00 TS 12.3000 -108.100 30 hurdat_epa main 833 833 O_________O___ hurdat_epa EP131986 12.3000 -108.100 TD 30 -1 12.3000 -108.100 1 30 14 268
1986259N13256 1986 95 EP MM MADELINE 1986-09-16 15:00:00 TS 12.2886 -108.838 main 879 879 P_________P___ EP131986 12.2851 -108.857 TD 32 -1 12.2990 -108.779 1 31 14 270
1986259N13256 1986 95 EP MM MADELINE 1986-09-16 18:00:00 TS 12.3049 -109.564 35 hurdat_epa main 927 927 O_________P___ hurdat_epa EP131986 12.3000 -109.600 TS 35 0 12.3195 -109.457 1 32 13 272
1986259N13256 1986 95 EP MM MADELINE 1986-09-16 21:00:00 TS 12.3454 -110.194 main 964 961 P_________P___ EP131986 12.3422 -110.215 TS 35 0 12.3552 -110.132 1 33 12 275
1986259N13256 1986 95 EP MM MADELINE 1986-09-17 00:00:00 TS 12.4000 -110.800 35 hurdat_epa main 995 995 O_________O___ hurdat_epa EP131986 12.4000 -110.800 TS 35 0 12.4000 -110.800 2 35 12 275
1986259N13256 1986 95 EP MM MADELINE 1986-09-17 03:00:00 TS 12.4458 -111.440 main 1038 1037 P_________P___ EP131986 12.4499 -111.443 TS 37 0 12.4337 -111.433 2 37 13 274
1986259N13256 1986 95 EP MM MADELINE 1986-09-17 06:00:00 TS 12.4940 -112.091 40 hurdat_epa main 1082 1082 O_________P___ hurdat_epa EP131986 12.5000 -112.100 TS 40 0 12.4761 -112.063 2 40 13 274
1986259N13256 1986 95 EP MM MADELINE 1986-09-17 09:00:00 TS 12.5392 -112.724 main 1128 1128 P_________P___ EP131986 12.5422 -112.728 TS 42 0 12.5305 -112.711 2 42 13 275
1986259N13256 1986 95 EP MM MADELINE 1986-09-17 12:00:00 TS 12.6000 -113.400 45 hurdat_epa main 1174 1174 O_________O___ hurdat_epa EP131986 12.6000 -113.400 TS 45 0 12.6000 -113.400 2 45 14 276
1986259N13256 1986 95 EP MM MADELINE 1986-09-17 15:00:00 TS 12.6897 -114.171 main 1224 1224 P_________P___ EP131986 12.6924 -114.177 TS 47 0 12.6814 -114.153 2 47 16 277
1986259N13256 1986 95 EP MM MADELINE 1986-09-17 18:00:00 TS 12.7943 -114.987 50 hurdat_epa main 1247 1247 O_________P___ hurdat_epa EP131986 12.8000 -115.000 TS 50 0 12.7772 -114.948 2 50 16 277
1986259N13256 1986 95 EP MM MADELINE 1986-09-17 21:00:00 TS 12.8959 -115.792 main 1275 1275 P_________P___ EP131986 12.8998 -115.800 TS 52 0 12.8843 -115.769 2 52 16 277
1986259N13256 1986 95 EP MM MADELINE 1986-09-18 00:00:00 TS 13.0000 -116.600 55 hurdat_epa main 1308 1308 O_________O___ hurdat_epa EP131986 13.0000 -116.600 TS 55 0 13.0000 -116.600 2 55 16 277
1986259N13256 1986 95 EP MM MADELINE 1986-09-18 03:00:00 TS 13.0944 -117.399 main 1346 1346 P_________P___ EP131986 13.0922 -117.393 TS 57 0 13.1009 -117.418 2 56 16 277
1986259N13256 1986 95 EP MM MADELINE 1986-09-18 06:00:00 TS 13.2029 -118.211 60 hurdat_epa main 1388 1388 O_________P___ hurdat_epa EP131986 13.2000 -118.200 TS 60 0 13.2116 -118.243 2 57 16 278
1986259N13256 1986 95 EP MM MADELINE 1986-09-18 09:00:00 TS 13.3308 -119.050 main 1433 1433 P_________P___ EP131986 13.3273 -119.043 TS 60 0 13.3415 -119.072 2 58 17 280
1986259N13256 1986 95 EP MM MADELINE 1986-09-18 12:00:00 TS 13.5000 -119.900 60 hurdat_epa main 1482 1482 O_________O___ hurdat_epa EP131986 13.5000 -119.900 TS 60 0 13.5000 -119.900 2 60 17 284
1986259N13256 1986 95 EP MM MADELINE 1986-09-18 15:00:00 TS 13.7346 -120.746 main 1525 1522 P_________P___ EP131986 13.7423 -120.757 TS 60 0 13.7114 -120.712 2 60 17 287
1986259N13256 1986 95 EP MM MADELINE 1986-09-18 18:00:00 TS 13.9871 -121.582 60 hurdat_epa main 1556 1556 O_________P___ hurdat_epa EP131986 14.0000 -121.600 TS 60 0 13.9484 -121.527 2 60 17 286
1986259N13256 1986 95 EP MM MADELINE 1986-09-18 21:00:00 TS 14.2018 -122.383 main 1593 1593 P_________P___ EP131986 14.2070 -122.393 TS 60 0 14.1863 -122.353 2 60 16 285
1986259N13256 1986 95 EP MM MADELINE 1986-09-19 00:00:00 TS 14.4000 -123.200 60 hurdat_epa main 1635 1635 O_________O___ hurdat_epa EP131986 14.4000 -123.200 TS 60 0 14.4000 -123.200 2 60 17 284
1986259N13256 1986 95 EP MM MADELINE 1986-09-19 03:00:00 TS 14.6042 -124.092 main 1687 1687 P_________P___ EP131986 14.6223 -124.085 TS 57 0 14.5499 -124.112 2 56 18 282
1986259N13256 1986 95 EP MM MADELINE 1986-09-19 06:00:00 TS 14.7682 -125.010 55 hurdat_epa main 1742 1742 O_________P___ hurdat_epa EP131986 14.8000 -125.000 TS 55 0 14.6729 -125.038 2 52 18 278
1986259N13256 1986 95 EP MM MADELINE 1986-09-19 09:00:00 TS 14.8503 -125.923 main 1808 1808 P_________P___ EP131986 14.8723 -125.915 TS 50 0 14.7843 -125.946 2 48 17 274
1986259N13256 1986 95 EP MM MADELINE 1986-09-19 12:00:00 TS 14.9000 -126.800 45 hurdat_epa main 1879 1879 O_________O___ hurdat_epa EP131986 14.9000 -126.800 TS 45 0 14.9000 -126.800 2 45 17 273
1986259N13256 1986 95 EP MM MADELINE 1986-09-19 15:00:00 TS 14.9414 -127.645 main 1933 1933 P_________P___ EP131986 14.9198 -127.645 TS 40 0 15.0060 -127.643 2 42 16 275
1986259N13256 1986 95 EP MM MADELINE 1986-09-19 18:00:00 TS 15.0313 -128.404 35 hurdat_epa main 1982 1980 O_________P___ hurdat_epa EP131986 15.0000 -128.400 TS 35 0 15.1250 -128.417 2 40 14 281
1986259N13256 1986 95 EP MM MADELINE 1986-09-19 21:00:00 TS 15.2184 -129.088 main 2016 2016 P_________P___ EP131986 15.1974 -129.090 TS 35 0 15.2814 -129.083 2 37 12 292
1986259N13256 1986 95 EP MM MADELINE 1986-09-20 00:00:00 TS 15.5000 -129.600 35 hurdat_epa main 2030 2022 O_________O___ hurdat_epa EP131986 15.5000 -129.600 TS 35 0 15.5000 -129.600 2 35 10 310
1986259N13256 1986 95 EP MM MADELINE 1986-09-20 03:00:00 TS 15.8668 -129.887 main 2022 2000 P_________P___ EP131986 15.8847 -129.868 TS 35 0 15.8130 -129.946 2 35 9 331
1986259N13256 1986 95 EP MM MADELINE 1986-09-20 06:00:00 TS 16.2721 -130.036 35 hurdat_epa main 2000 1993 O_________P___ hurdat_epa EP131986 16.3000 -130.000 TS 35 0 16.1885 -130.145 2 35 8 340
1986259N13256 1986 95 EP MM MADELINE 1986-09-20 09:00:00 TS 16.6418 -130.185 main 1993 1972 P_________P___ EP131986 16.6575 -130.165 TS 35 0 16.5947 -130.247 2 35 8 341
1986259N13256 1986 95 EP MM MADELINE 1986-09-20 12:00:00 TS 17.0000 -130.300 35 hurdat_epa main 1972 1959 O_________O___ hurdat_epa EP131986 17.0000 -130.300 TS 35 0 17.0000 -130.300 2 35 8 343
1986259N13256 1986 95 EP MM MADELINE 1986-09-20 15:00:00 TS 17.3589 -130.421 main 1952 1939 P_________P___ EP131986 17.3500 -130.423 TS 35 0 17.3855 -130.418 2 35 7 345
1986259N13256 1986 95 EP MM MADELINE 1986-09-20 18:00:00 TS 17.7150 -130.499 35 hurdat_epa main 1939 1912 O_________P___ hurdat_epa EP131986 17.7000 -130.500 TS 35 0 17.7598 -130.497 2 35 7 352
1986259N13256 1986 95 EP MM MADELINE 1986-09-20 21:00:00 TS 18.0860 -130.535 main 1912 1892 P_________P___ EP131986 18.0800 -130.538 TS 35 0 18.1042 -130.528 2 35 7 359
1986259N13256 1986 95 EP MM MADELINE 1986-09-21 00:00:00 TS 18.4000 -130.500 35 hurdat_epa main 1892 1871 O_________O___ hurdat_epa EP131986 18.4000 -130.500 TS 35 0 18.4000 -130.500 2 35 5 17
1986259N13256 1986 95 EP MM MADELINE 1986-09-21 03:00:00 TS 18.5857 -130.381 main 1871 1847 P_________P___ EP131986 18.5725 -130.372 TS 35 0 18.6254 -130.408 2 35 4 40
1986259N13256 1986 95 EP MM MADELINE 1986-09-21 06:00:00 TS 18.7256 -130.215 35 hurdat_epa main 1847 1825 O_________P___ hurdat_epa EP131986 18.7000 -130.200 TS 35 0 18.8026 -130.260 2 35 5 43
1986259N13256 1986 95 EP MM MADELINE 1986-09-21 09:00:00 TS 18.9134 -130.058 main 1825 1795 P_________P___ EP131986 18.9000 -130.050 TS 35 0 18.9535 -130.083 2 35 5 39
1986259N13256 1986 95 EP MM MADELINE 1986-09-21 12:00:00 TS 19.1000 -129.900 35 hurdat_epa main 1795 1772 O_________O___ hurdat_epa EP131986 19.1000 -129.900 TS 35 0 19.1000 -129.900 2 35 5 41
1986259N13256 1986 95 EP MM MADELINE 1986-09-21 15:00:00 TS 19.2563 -129.739 main 1765 1750 P_________P___ EP131986 19.2500 -129.750 TS 35 0 19.2751 -129.706 2 33 4 44
1986259N13256 1986 95 EP MM MADELINE 1986-09-21 18:00:00 TS 19.4125 -129.579 35 hurdat_epa main 1750 1720 O_________P___ hurdat_epa EP131986 19.4000 -129.600 TS 35 0 19.4501 -129.518 2 32 5 40
1986259N13256 1986 95 EP MM MADELINE 1986-09-21 21:00:00 TS 19.6006 -129.430 main 1720 1699 P_________P___ EP131986 19.5925 -129.450 TS 32 -1 19.6250 -129.371 2 31 5 34
1986259N13256 1986 95 EP MM MADELINE 1986-09-22 00:00:00 TS 19.8000 -129.300 30 hurdat_epa main 1699 1669 O_________O___ hurdat_epa EP131986 19.8000 -129.300 TD 30 -1 19.8000 -129.300 1 30 5 35
1986259N13256 1986 95 EP MM MADELINE 1986-09-22 03:00:00 TS 19.9993 -129.133 main 1669 1657 P_________P___ EP131986 20.0074 -129.068 TD 27 -1 19.9751 -129.328 1 28 4 25
1986259N13256 1986 95 EP MM MADELINE 1986-09-22 06:00:00 TS 20.1875 -129.110 25 hurdat_epa main 1657 1657 O_________P___ hurdat_epa EP131986 20.2000 -129.000 TD 25 -1 20.1502 -129.439 1 27 4 328
1986259N13256 1986 95 EP MM MADELINE 1986-09-22 09:00:00 TS 20.3517 -129.369 main 1671 1671 P_________P___ EP131986 20.3605 -129.290 TD 25 -1 20.3252 -129.606 1 26 7 296
1986259N13256 1986 95 EP MM MADELINE 1986-09-22 12:00:00 TS 20.5000 -129.800 25 hurdat_epa main 1701 O_________O___ hurdat_epa EP131986 20.5000 -129.800 TD 25 -1 20.5000 -129.800 1 25 9 290

IBTrACS Databaseについて

本データベースは、米国NOAAが公開する1842年以降の世界の熱帯低気圧のベストトラックデータアーカイブInternational Best Track Archive for Climate Stewardship (IBTrACS)を、ウェブで閲覧しやすい形式に変換したものです。

最終更新日:2021-10-27